createdAt,value
2018-12-01T00:00:43.363Z,101013.61
2018-12-01T00:03:12.835Z,101005.07
2018-12-01T00:05:42.266Z,101006.73
2018-12-01T00:08:11.839Z,100999.00
2018-12-01T00:10:41.621Z,100999.44
2018-12-01T00:13:10.925Z,100997.15
2018-12-01T00:15:40.417Z,101001.34
2018-12-01T00:18:10.153Z,100987.84
2018-12-01T00:20:40.017Z,100994.19
2018-12-01T00:23:09.442Z,101000.29
2018-12-01T00:25:38.894Z,100999.50
2018-12-01T00:28:08.331Z,100999.87
2018-12-01T00:30:37.813Z,100995.94
2018-12-01T00:33:07.381Z,101004.62
2018-12-01T00:35:36.647Z,101004.08
2018-12-01T00:38:06.698Z,100999.87
2018-12-01T00:40:35.973Z,101007.13
2018-12-01T00:43:05.386Z,100994.21
2018-12-01T00:45:34.637Z,100997.67
2018-12-01T00:48:04.241Z,100994.36
2018-12-01T00:50:33.523Z,101000.19
2018-12-01T00:53:03.334Z,101008.14
2018-12-01T00:55:32.750Z,101010.08
2018-12-01T00:58:02.040Z,101014.70
2018-12-01T01:00:31.631Z,101014.00
2018-12-01T01:03:01.417Z,101020.53
2018-12-01T01:05:31.650Z,101014.92
2018-12-01T01:08:01.859Z,101010.67
2018-12-01T01:10:34.719Z,101008.62
2018-12-01T01:13:03.767Z,101015.65
2018-12-01T01:15:33.069Z,101019.05
2018-12-01T01:18:02.372Z,101022.39
2018-12-01T01:20:31.871Z,101018.06
2018-12-01T01:23:07.640Z,101029.48
2018-12-01T01:25:37.074Z,101034.24
2018-12-01T01:28:07.457Z,101031.17
2018-12-01T01:30:48.874Z,101023.75
2018-12-01T01:33:27.713Z,101029.48
2018-12-01T01:35:57.015Z,101029.13
2018-12-01T01:38:26.496Z,101026.63
2018-12-01T01:41:01.667Z,101027.63
2018-12-01T01:43:31.021Z,101027.42
2018-12-01T01:46:00.822Z,101019.83
2018-12-01T01:48:30.413Z,101022.75
2018-12-01T01:50:59.717Z,101022.20
2018-12-01T01:53:29.012Z,101014.30
2018-12-01T01:55:58.353Z,101014.14
2018-12-01T01:58:27.654Z,101006.56
2018-12-01T02:00:56.913Z,101007.11
2018-12-01T02:03:26.229Z,101006.56
2018-12-01T02:05:55.528Z,101011.32
2018-12-01T02:08:24.896Z,101011.42
2018-12-01T02:10:54.841Z,101015.52
2018-12-01T02:13:24.133Z,101017.58
2018-12-01T02:15:53.450Z,101017.32
2018-12-01T02:18:23.468Z,101013.77
2018-12-01T02:20:52.779Z,101010.72
2018-12-01T02:23:22.064Z,101021.09
2018-12-01T02:25:51.506Z,101008.73
2018-12-01T02:28:20.843Z,101005.69
2018-12-01T02:30:50.133Z,101000.36
2018-12-01T02:33:19.525Z,100995.47
2018-12-01T02:35:49.171Z,101000.58
2018-12-01T02:38:18.460Z,101003.63
2018-12-01T02:40:47.855Z,100999.64
2018-12-01T02:43:17.094Z,101000.23
2018-12-01T02:46:03.377Z,101000.31
2018-12-01T02:48:33.034Z,101006.63
2018-12-01T02:51:02.387Z,101007.27
2018-12-01T02:53:31.773Z,101003.42
2018-12-01T02:56:01.069Z,101002.92
2018-12-01T02:58:30.373Z,101002.02
2018-12-01T03:00:59.749Z,101006.33
2018-12-01T03:03:29.077Z,101005.61
2018-12-01T03:05:58.381Z,101007.36
2018-12-01T03:08:27.673Z,101010.63
2018-12-01T03:10:56.993Z,101012.87
2018-12-01T03:13:26.464Z,101009.11
2018-12-01T03:15:56.248Z,101008.48
2018-12-01T03:18:25.518Z,101010.64
2018-12-01T03:20:54.856Z,101009.56
2018-12-01T03:23:24.147Z,101003.73
2018-12-01T03:25:56.632Z,101001.04
2018-12-01T03:28:26.045Z,101005.52
2018-12-01T03:30:55.297Z,101008.75
2018-12-01T03:33:24.560Z,101013.20
2018-12-01T03:35:54.168Z,101014.05
2018-12-01T03:38:23.815Z,101014.72
2018-12-01T03:40:53.283Z,101004.13
2018-12-01T03:43:22.580Z,101000.23
2018-12-01T03:45:51.888Z,101012.61
2018-12-01T03:48:21.216Z,101004.80
2018-12-01T03:50:50.518Z,101014.84
2018-12-01T03:53:19.798Z,101017.72
2018-12-01T03:55:49.080Z,101018.40
2018-12-01T03:58:18.497Z,101012.08
2018-12-01T04:00:47.750Z,101015.21
2018-12-01T04:03:17.019Z,101021.27
2018-12-01T04:05:46.420Z,101018.69
2018-12-01T04:08:15.679Z,101010.80
2018-12-01T04:10:44.941Z,101007.80
2018-12-01T04:13:14.229Z,101004.03
2018-12-01T04:15:43.700Z,101013.36
2018-12-01T04:18:13.130Z,101013.94
2018-12-01T04:20:42.549Z,101008.41
2018-12-01T04:23:11.935Z,101012.09
2018-12-01T04:25:41.200Z,101017.81
2018-12-01T04:28:10.507Z,101012.86
2018-12-01T04:30:39.749Z,101018.14
2018-12-01T04:33:09.007Z,101018.77
2018-12-01T04:35:38.285Z,101014.50
2018-12-01T04:38:07.967Z,101019.27
2018-12-01T04:40:37.601Z,101017.36
2018-12-01T04:43:07.174Z,101014.45
2018-12-01T04:45:36.438Z,101017.13
2018-12-01T04:48:05.915Z,101012.80
2018-12-01T04:50:35.212Z,101021.45
2018-12-01T04:53:04.464Z,101021.24
2018-12-01T04:55:33.910Z,101022.95
2018-12-01T04:58:03.213Z,101026.36
2018-12-01T05:00:32.530Z,101027.94
2018-12-01T05:03:01.847Z,101028.14
2018-12-01T05:05:31.262Z,101031.97
2018-12-01T05:08:00.549Z,101035.10
2018-12-01T05:10:29.879Z,101028.50
2018-12-01T05:12:59.139Z,101031.27
2018-12-01T05:15:28.492Z,101040.21
2018-12-01T05:17:57.766Z,101038.14
2018-12-01T05:20:27.185Z,101042.05
2018-12-01T05:22:56.473Z,101036.80
2018-12-01T05:25:25.776Z,101046.74
2018-12-01T05:27:55.268Z,101045.89
2018-12-01T05:30:24.595Z,101042.55
2018-12-01T05:32:53.846Z,101038.16
2018-12-01T05:35:24.776Z,101035.74
2018-12-01T05:37:54.029Z,101037.23
2018-12-01T05:40:23.373Z,101029.98
2018-12-01T05:42:52.724Z,101031.69
2018-12-01T05:45:23.447Z,101024.22
2018-12-01T05:47:53.610Z,101025.80
2018-12-01T05:50:26.737Z,101029.84
2018-12-01T05:52:57.495Z,101036.09
2018-12-01T05:55:26.912Z,101035.51
2018-12-01T05:57:56.181Z,101034.59
2018-12-01T06:00:25.539Z,101033.09
2018-12-01T06:02:54.850Z,101040.48
2018-12-01T06:05:24.095Z,101043.73
2018-12-01T06:07:53.880Z,101042.56
2018-12-01T06:10:23.705Z,101043.08
2018-12-01T06:12:54.113Z,101039.29
2018-12-01T06:15:23.504Z,101045.44
2018-12-01T06:17:52.769Z,101046.15
2018-12-01T06:20:23.410Z,101041.17
2018-12-01T06:22:52.782Z,101036.41
2018-12-01T06:25:23.686Z,101035.62
2018-12-01T06:27:53.398Z,101049.12
2018-12-01T06:30:22.730Z,101045.01
2018-12-01T06:32:52.937Z,101042.23
2018-12-01T06:35:22.232Z,101042.59
2018-12-01T06:37:51.498Z,101060.06
2018-12-01T06:40:21.866Z,101051.89
2018-12-01T06:42:51.688Z,101059.38
2018-12-01T06:45:21.136Z,101056.26
2018-12-01T06:47:50.430Z,101051.42
2018-12-01T06:50:21.877Z,101059.98
2018-12-01T06:52:53.347Z,101063.02
2018-12-01T06:55:23.840Z,101060.63
2018-12-01T06:57:53.154Z,101063.48
2018-12-01T07:00:24.215Z,101063.70
2018-12-01T07:02:55.225Z,101070.79
2018-12-01T07:05:24.576Z,101072.03
2018-12-01T07:07:53.957Z,101069.53
2018-12-01T07:10:23.940Z,101072.30
2018-12-01T07:13:01.823Z,101066.19
2018-12-01T07:15:36.738Z,101066.92
2018-12-01T07:18:23.059Z,101068.61
2018-12-01T07:20:52.322Z,101078.63
2018-12-01T07:23:21.583Z,101076.28
2018-12-01T07:25:51.189Z,101076.92
2018-12-01T07:28:21.463Z,101082.82
2018-12-01T07:30:49.789Z,101083.81
2018-12-01T07:33:19.042Z,101077.78
2018-12-01T07:35:48.319Z,101073.97
2018-12-01T07:38:17.595Z,101070.05
2018-12-01T07:40:46.896Z,101066.76
2018-12-01T07:43:16.157Z,101070.52
2018-12-01T07:45:45.487Z,101077.09
2018-12-01T07:48:14.994Z,101075.13
2018-12-01T07:50:44.227Z,101072.84
2018-12-01T07:53:17.438Z,101072.55
2018-12-01T07:55:42.852Z,101073.20
2018-12-01T07:58:12.140Z,101067.13
2018-12-01T08:00:41.486Z,101065.45
2018-12-01T08:03:10.774Z,101063.81
2018-12-01T08:05:40.201Z,101056.95
2018-12-01T08:08:09.518Z,101058.19
2018-12-01T08:10:39.232Z,101058.42
2018-12-01T08:13:08.517Z,101054.11
2018-12-01T08:15:37.843Z,101045.86
2018-12-01T08:18:07.125Z,101056.36
2018-12-01T08:20:36.438Z,101057.98
2018-12-01T08:23:06.136Z,101056.92
2018-12-01T08:25:35.437Z,101055.17
2018-12-01T08:28:05.262Z,101054.13
2018-12-01T08:30:34.801Z,101063.48
2018-12-01T08:33:04.580Z,101062.94
2018-12-01T08:35:33.873Z,101068.88
2018-12-01T08:38:03.173Z,101057.13
2018-12-01T08:40:33.735Z,101050.47
2018-12-01T08:43:03.081Z,101049.31
2018-12-01T08:45:32.402Z,101048.76
2018-12-01T08:48:01.708Z,101036.09
2018-12-01T08:50:31.050Z,101027.95
2018-12-01T08:53:00.314Z,101033.89
2018-12-01T08:55:30.162Z,101033.53
2018-12-01T08:57:59.457Z,101033.39
2018-12-01T09:00:39.414Z,101042.00
2018-12-01T09:03:20.756Z,101058.36
2018-12-01T09:05:50.093Z,101072.16
2018-12-01T09:08:19.345Z,101070.25
2018-12-01T09:10:48.639Z,101070.95
2018-12-01T09:13:18.265Z,101083.47
2018-12-01T09:15:47.572Z,101075.52
2018-12-01T09:18:16.855Z,101074.80
2018-12-01T09:20:46.162Z,101070.77
2018-12-01T09:23:15.437Z,101063.54
2018-12-01T09:25:44.742Z,101052.23
2018-12-01T09:28:14.026Z,101040.56
2018-12-01T09:30:43.620Z,101039.52
2018-12-01T09:33:12.913Z,101037.01
2018-12-01T09:35:42.689Z,101043.68
2018-12-01T09:38:11.996Z,101041.16
2018-12-01T09:40:41.493Z,101045.64
2018-12-01T09:43:10.926Z,101054.81
2018-12-01T09:45:40.207Z,101053.53
2018-12-01T09:48:09.662Z,101051.33
2018-12-01T09:50:38.970Z,101049.24
2018-12-01T09:53:08.586Z,101051.48
2018-12-01T09:55:37.966Z,101048.52
2018-12-01T09:58:07.678Z,101038.22
2018-12-01T10:00:36.973Z,101038.30
2018-12-01T10:03:08.219Z,101040.73
2018-12-01T10:05:37.563Z,101040.11
2018-12-01T10:08:07.755Z,101040.16
2018-12-01T10:10:37.132Z,101045.88
2018-12-01T10:13:06.500Z,101045.52
2018-12-01T10:15:37.389Z,101049.63
2018-12-01T10:18:09.416Z,101049.48
2018-12-01T10:20:38.900Z,101053.05
2018-12-01T10:23:11.901Z,101054.81
2018-12-01T10:25:43.489Z,101059.65
2018-12-01T10:28:13.058Z,101057.56
2018-12-01T10:30:42.394Z,101053.77
2018-12-01T10:33:11.756Z,101050.95
2018-12-01T10:35:41.244Z,101053.50
2018-12-01T10:38:14.031Z,101050.56
2018-12-01T10:40:43.361Z,101044.18
2018-12-01T10:43:12.664Z,101045.11
2018-12-01T10:45:42.017Z,101039.88
2018-12-01T10:48:11.432Z,101037.18
2018-12-01T10:50:40.885Z,101033.78
2018-12-01T10:53:10.193Z,101033.80
2018-12-01T10:55:40.000Z,101033.11
2018-12-01T10:58:11.362Z,101041.58
2018-12-01T11:00:46.557Z,101047.00
2018-12-01T11:03:21.361Z,101045.99
2018-12-01T11:05:50.849Z,101038.95
2018-12-01T11:08:20.194Z,101038.03
2018-12-01T11:10:55.081Z,101044.30
2018-12-01T11:13:19.412Z,101050.05
2018-12-01T11:15:48.718Z,101046.98
2018-12-01T11:18:18.044Z,101044.11
2018-12-01T11:20:47.364Z,101051.75
2018-12-01T11:23:16.646Z,101045.69
2018-12-01T11:25:46.995Z,101043.77
2018-12-01T11:28:16.326Z,101043.64
2018-12-01T11:30:45.632Z,101038.23
2018-12-01T11:33:14.967Z,101049.02
2018-12-01T11:35:44.401Z,101041.97
2018-12-01T11:38:13.724Z,101037.09
2018-12-01T11:40:42.983Z,101031.70
2018-12-01T11:43:12.331Z,101027.11
2018-12-01T11:45:41.668Z,101017.63
2018-12-01T11:48:11.087Z,101013.55
2018-12-01T11:50:41.488Z,101004.19
2018-12-01T11:53:10.808Z,101003.11
2018-12-01T11:55:40.106Z,100994.82
2018-12-01T11:58:09.517Z,100993.99
2018-12-01T12:00:38.838Z,100981.55
2018-12-01T12:03:08.161Z,100980.46
2018-12-01T12:05:37.573Z,100985.50
2018-12-01T12:08:19.378Z,100979.87
2018-12-01T12:10:48.799Z,100992.42
2018-12-01T12:13:18.198Z,100995.66
2018-12-01T12:15:47.484Z,100994.80
2018-12-01T12:18:16.976Z,100987.36
2018-12-01T12:20:46.382Z,100992.30
2018-12-01T12:23:16.815Z,101001.62
2018-12-01T12:25:45.081Z,100997.73
2018-12-01T12:28:14.466Z,101002.28
2018-12-01T12:30:43.939Z,100998.47
2018-12-01T12:33:13.314Z,100995.30
2018-12-01T12:35:42.622Z,100998.24
2018-12-01T12:38:11.933Z,101004.80
2018-12-01T12:40:41.385Z,100996.48
2018-12-01T12:43:10.724Z,100992.42
2018-12-01T12:45:40.105Z,100984.84
2018-12-01T12:48:10.356Z,100991.66
2018-12-01T12:50:39.669Z,100982.55
2018-12-01T12:53:08.945Z,100979.76
2018-12-01T12:55:38.290Z,100978.81
2018-12-01T12:58:07.759Z,100972.63
2018-12-01T13:00:37.174Z,100970.11
2018-12-01T13:03:12.581Z,100968.28
2018-12-01T13:05:45.573Z,100965.06
2018-12-01T13:08:17.788Z,100962.34
2018-12-01T13:10:47.607Z,100966.13
2018-12-01T13:13:16.902Z,100964.96
2018-12-01T13:15:46.249Z,100955.81
2018-12-01T13:18:15.932Z,100953.27
2018-12-01T13:20:47.360Z,100956.83
2018-12-01T13:23:16.686Z,100951.91
2018-12-01T13:25:46.082Z,100957.52
2018-12-01T13:28:19.335Z,100956.49
2018-12-01T13:30:55.781Z,100960.56
2018-12-01T13:33:25.596Z,100961.73
2018-12-01T13:35:55.129Z,100961.51
2018-12-01T13:38:24.661Z,100973.38
2018-12-01T13:40:54.197Z,100972.57
2018-12-01T13:43:23.507Z,100969.63
2018-12-01T13:45:52.835Z,100960.84
2018-12-01T13:48:22.205Z,100976.14
2018-12-01T13:50:51.522Z,100974.27
2018-12-01T13:53:20.832Z,100970.73
2018-12-01T13:55:50.195Z,100972.59
2018-12-01T13:58:19.524Z,100971.19
2018-12-01T14:00:48.824Z,100960.11
2018-12-01T14:03:18.365Z,100957.41
2018-12-01T14:05:47.716Z,100952.02
2018-12-01T14:08:17.044Z,100951.34
2018-12-01T14:10:49.509Z,100948.27
2018-12-01T14:13:18.828Z,100951.69
2018-12-01T14:15:48.214Z,100949.63
2018-12-01T14:18:17.542Z,100956.06
2018-12-01T14:20:46.836Z,100960.46
2018-12-01T14:23:16.112Z,100959.50
2018-12-01T14:25:45.623Z,100964.58
2018-12-01T14:28:14.904Z,100963.60
2018-12-01T14:30:44.221Z,100970.70
2018-12-01T14:33:14.145Z,100971.70
2018-12-01T14:35:43.444Z,100966.23
2018-12-01T14:38:16.757Z,100963.68
2018-12-01T14:40:48.908Z,100959.12
2018-12-01T14:43:18.711Z,100959.09
2018-12-01T14:45:50.562Z,100959.84
2018-12-01T14:48:19.941Z,100953.33
2018-12-01T14:50:49.251Z,100955.92
2018-12-01T14:53:19.437Z,100960.34
2018-12-01T14:55:48.754Z,100956.95
2018-12-01T14:58:18.111Z,100955.16
2018-12-01T15:00:54.327Z,100954.64
2018-12-01T15:03:23.841Z,100945.91
2018-12-01T15:05:53.141Z,100944.42
2018-12-01T15:08:22.465Z,100942.03
2018-12-01T15:10:51.933Z,100940.94
2018-12-01T15:13:21.263Z,100943.28
2018-12-01T15:15:50.583Z,100942.97
2018-12-01T15:18:19.853Z,100947.05
2018-12-01T15:20:49.127Z,100942.58
2018-12-01T15:23:18.812Z,100948.66
2018-12-01T15:25:48.100Z,100948.27
2018-12-01T15:28:17.358Z,100945.05
2018-12-01T15:30:46.759Z,100942.26
2018-12-01T15:33:17.137Z,100941.41
2018-12-01T15:35:47.972Z,100933.84
2018-12-01T15:38:17.370Z,100931.45
2018-12-01T15:40:49.924Z,100935.48
2018-12-01T15:43:19.374Z,100921.62
2018-12-01T15:45:48.684Z,100918.84
2018-12-01T15:48:18.018Z,100920.36
2018-12-01T15:50:47.318Z,100920.89
2018-12-01T15:53:17.076Z,100917.09
2018-12-01T15:55:46.375Z,100913.06
2018-12-01T15:58:15.749Z,100909.19
2018-12-01T16:00:45.323Z,100902.80
2018-12-01T16:03:14.954Z,100897.23
2018-12-01T16:05:44.238Z,100892.77
2018-12-01T16:08:13.547Z,100892.35
2018-12-01T16:10:43.135Z,100894.27
2018-12-01T16:13:20.202Z,100888.70
2018-12-01T16:15:57.175Z,100892.06
2018-12-01T16:18:26.443Z,100884.56
2018-12-01T16:20:55.791Z,100884.55
2018-12-01T16:23:25.503Z,100889.25
2018-12-01T16:25:55.138Z,100887.74
2018-12-01T16:28:24.410Z,100887.31
2018-12-01T16:30:53.768Z,100880.67
2018-12-01T16:33:23.337Z,100881.95
2018-12-01T16:35:52.957Z,100873.14
2018-12-01T16:38:24.926Z,100868.08
2018-12-01T16:41:00.762Z,100864.65
2018-12-01T16:43:33.309Z,100861.29
2018-12-01T16:46:02.747Z,100850.75
2018-12-01T16:48:33.153Z,100849.09
2018-12-01T16:51:01.437Z,100848.73
2018-12-01T16:53:30.852Z,100841.94
2018-12-01T16:56:00.233Z,100845.42
2018-12-01T16:58:29.551Z,100833.95
2018-12-01T17:00:58.975Z,100828.77
2018-12-01T17:03:28.264Z,100832.67
2018-12-01T17:06:00.124Z,100830.63
2018-12-01T17:08:29.409Z,100837.27
2018-12-01T17:10:58.728Z,100831.93
2018-12-01T17:13:28.034Z,100831.93
2018-12-01T17:15:57.370Z,100834.70
2018-12-01T17:18:26.654Z,100830.80
2018-12-01T17:20:56.003Z,100831.50
2018-12-01T17:23:25.415Z,100833.09
2018-12-01T17:25:54.735Z,100837.92
2018-12-01T17:28:24.590Z,100840.08
2018-12-01T17:30:54.042Z,100833.56
2018-12-01T17:33:23.307Z,100833.44
2018-12-01T17:35:52.655Z,100828.70
2018-12-01T17:38:22.878Z,100833.06
2018-12-01T17:41:28.174Z,100836.29
2018-12-01T17:44:08.339Z,100831.65
2018-12-01T17:46:38.264Z,100827.03
2018-12-01T17:49:08.048Z,100827.16
2018-12-01T17:51:37.354Z,100825.00
2018-12-01T17:54:12.962Z,100825.85
2018-12-01T17:56:42.217Z,100827.31
2018-12-01T17:59:11.478Z,100824.42
2018-12-01T18:01:41.426Z,100822.83
2018-12-01T18:04:10.702Z,100823.13
2018-12-01T18:06:39.991Z,100825.32
2018-12-01T18:09:10.413Z,100826.27
2018-12-01T18:11:39.928Z,100819.07
2018-12-01T18:14:11.082Z,100820.86
2018-12-01T18:16:40.830Z,100829.62
2018-12-01T18:19:11.119Z,100817.55
2018-12-01T18:21:39.781Z,100821.61
2018-12-01T18:24:09.644Z,100805.05
2018-12-01T18:26:38.946Z,100813.02
2018-12-01T18:29:08.279Z,100812.58
2018-12-01T18:31:37.647Z,100809.66
2018-12-01T18:34:11.077Z,100814.17
2018-12-01T18:36:40.571Z,100813.87
2018-12-01T18:39:17.621Z,100806.73
2018-12-01T18:41:47.462Z,100807.13
2018-12-01T18:44:16.768Z,100807.73
2018-12-01T18:46:46.104Z,100799.87
2018-12-01T18:49:15.441Z,100793.58
2018-12-01T18:51:44.741Z,100791.44
2018-12-01T18:54:14.351Z,100785.08
2018-12-01T18:56:43.685Z,100788.32
2018-12-01T18:59:12.973Z,100780.98
2018-12-01T19:01:42.348Z,100773.64
2018-12-01T19:04:12.248Z,100783.22
2018-12-01T19:06:41.538Z,100777.28
2018-12-01T19:09:10.949Z,100775.97
2018-12-01T19:11:40.266Z,100765.80
2018-12-01T19:14:09.522Z,100770.97
2018-12-01T19:16:38.883Z,100772.08
2018-12-01T19:19:08.578Z,100765.67
2018-12-01T19:21:37.959Z,100757.90
2018-12-01T19:24:07.271Z,100758.01
2018-12-01T19:26:37.047Z,100757.36
2018-12-01T19:29:06.876Z,100743.55
2018-12-01T19:31:36.216Z,100741.87
2018-12-01T19:34:06.100Z,100738.25
2018-12-01T19:36:35.500Z,100740.69
2018-12-01T19:39:12.218Z,100745.36
2018-12-01T19:41:41.506Z,100736.09
2018-12-01T19:44:10.895Z,100737.91
2018-12-01T19:46:40.972Z,100732.39
2018-12-01T19:49:10.098Z,100739.56
2018-12-01T19:51:39.399Z,100732.01
2018-12-01T19:54:08.740Z,100731.05
2018-12-01T19:56:38.024Z,100727.15
2018-12-01T19:59:07.313Z,100727.76
2018-12-01T20:01:36.631Z,100736.62
2018-12-01T20:04:06.267Z,100725.25
2018-12-01T20:06:35.542Z,100720.78
2018-12-01T20:09:05.838Z,100712.94
2018-12-01T20:11:35.250Z,100710.20
2018-12-01T20:14:08.426Z,100707.63
2018-12-01T20:16:41.295Z,100710.35
2018-12-01T20:19:10.935Z,100711.70
2018-12-01T20:21:40.201Z,100715.16
2018-12-01T20:24:09.870Z,100715.73
2018-12-01T20:26:41.903Z,100704.13
2018-12-01T20:29:11.233Z,100696.53
2018-12-01T20:31:40.505Z,100691.72
2018-12-01T20:34:10.061Z,100680.09
2018-12-01T20:36:47.875Z,100674.82
2018-12-01T20:39:23.368Z,100667.41
2018-12-01T20:41:52.673Z,100660.91
2018-12-01T20:44:22.337Z,100655.45
2018-12-01T20:46:51.921Z,100646.08
2018-12-01T20:49:21.356Z,100641.41
2018-12-01T20:51:50.730Z,100629.75
2018-12-01T20:54:31.613Z,100629.04
2018-12-01T20:57:33.868Z,100627.82
2018-12-01T21:00:03.938Z,100626.57
2018-12-01T21:02:33.363Z,100624.67
2018-12-01T21:05:02.728Z,100609.03
2018-12-01T21:07:32.347Z,100607.02
2018-12-01T21:10:01.754Z,100605.11
2018-12-01T21:12:31.145Z,100602.73
2018-12-01T21:15:00.661Z,100602.36
2018-12-01T21:17:29.981Z,100601.72
2018-12-01T21:20:00.193Z,100603.58
2018-12-01T21:22:29.670Z,100597.03
2018-12-01T21:24:59.053Z,100593.89
2018-12-01T21:27:28.525Z,100587.50
2018-12-01T21:29:58.083Z,100585.16
2018-12-01T21:32:27.571Z,100580.72
2018-12-01T21:34:56.976Z,100574.47
2018-12-01T21:37:26.440Z,100571.58
2018-12-01T21:39:55.905Z,100567.39
2018-12-01T21:42:25.565Z,100557.69
2018-12-01T21:44:55.203Z,100553.02
2018-12-01T21:47:24.596Z,100548.96
2018-12-01T21:49:53.999Z,100543.94
2018-12-01T21:52:23.825Z,100538.77
2018-12-01T21:54:53.236Z,100537.56
2018-12-01T21:57:22.653Z,100534.14
2018-12-01T21:59:52.072Z,100534.65
2018-12-01T22:02:21.498Z,100537.67
2018-12-01T22:04:50.947Z,100533.83
2018-12-01T22:07:20.305Z,100526.17
2018-12-01T22:09:49.661Z,100536.63
2018-12-01T22:12:19.124Z,100525.33
2018-12-01T22:14:48.549Z,100519.11
2018-12-01T22:17:18.161Z,100519.63
2018-12-01T22:19:47.496Z,100519.06
2018-12-01T22:22:17.019Z,100513.16
2018-12-01T22:24:46.326Z,100503.36
2018-12-01T22:27:15.693Z,100506.38
2018-12-01T22:29:45.088Z,100509.78
2018-12-01T22:32:14.439Z,100505.19
2018-12-01T22:34:43.751Z,100504.64
2018-12-01T22:37:13.340Z,100508.53
2018-12-01T22:39:42.919Z,100494.91
2018-12-01T22:42:12.290Z,100496.13
2018-12-01T22:44:41.599Z,100491.17
2018-12-01T22:47:10.855Z,100493.15
2018-12-01T22:49:40.199Z,100484.70
2018-12-01T22:52:09.616Z,100493.72
2018-12-01T22:54:39.078Z,100486.80
2018-12-01T22:57:08.431Z,100478.09
2018-12-01T22:59:38.243Z,100485.06
2018-12-01T23:02:07.620Z,100479.49
2018-12-01T23:04:38.856Z,100468.20
2018-12-01T23:07:08.157Z,100466.89
2018-12-01T23:09:37.422Z,100462.20
2018-12-01T23:12:06.924Z,100457.64
2018-12-01T23:14:36.213Z,100458.41
2018-12-01T23:17:05.890Z,100456.38
2018-12-01T23:19:35.543Z,100453.45
2018-12-01T23:22:04.974Z,100446.98
2018-12-01T23:24:34.407Z,100444.06
2018-12-01T23:27:03.768Z,100440.09
2018-12-01T23:29:33.152Z,100429.94
2018-12-01T23:32:02.440Z,100439.03
2018-12-01T23:34:31.830Z,100435.77
2018-12-01T23:37:01.122Z,100434.09
2018-12-01T23:39:30.604Z,100426.97
2018-12-01T23:41:59.989Z,100426.92
2018-12-01T23:44:30.402Z,100422.12
2018-12-01T23:46:59.660Z,100418.78
2018-12-01T23:49:28.970Z,100415.53
2018-12-01T23:51:58.260Z,100405.02
2018-12-01T23:54:27.514Z,100408.53
2018-12-01T23:56:56.796Z,100391.84
2018-12-01T23:59:26.069Z,100385.77
